sensor_id;sensor_type;location;lat;lon;timestamp;P1;durP1;ratioP1;P2;durP2;ratioP2
5696;SDS011;2873;50.966;7.210;2023-04-24T00:02:02;3.40;;;0.90;;
5696;SDS011;2873;50.966;7.210;2023-04-24T00:04:28;0.70;;;0.70;;
5696;SDS011;2873;50.966;7.210;2023-04-24T00:06:55;0.70;;;0.70;;
5696;SDS011;2873;50.966;7.210;2023-04-24T00:09:21;1.00;;;0.80;;
5696;SDS011;2873;50.966;7.210;2023-04-24T00:11:47;0.60;;;0.60;;
5696;SDS011;2873;50.966;7.210;2023-04-24T00:14:13;0.73;;;0.73;;
5696;SDS011;2873;50.966;7.210;2023-04-24T00:16:39;1.53;;;0.90;;
5696;SDS011;2873;50.966;7.210;2023-04-24T00:19:04;0.80;;;0.80;;
5696;SDS011;2873;50.966;7.210;2023-04-24T00:21:31;0.90;;;0.90;;
5696;SDS011;2873;50.966;7.210;2023-04-24T00:23:57;1.30;;;0.85;;
5696;SDS011;2873;50.966;7.210;2023-04-24T00:26:23;0.75;;;0.70;;
5696;SDS011;2873;50.966;7.210;2023-04-24T00:28:49;0.90;;;0.70;;
5696;SDS011;2873;50.966;7.210;2023-04-24T00:31:14;0.80;;;0.80;;
5696;SDS011;2873;50.966;7.210;2023-04-24T00:33:40;1.60;;;0.70;;
5696;SDS011;2873;50.966;7.210;2023-04-24T00:36:06;0.90;;;0.80;;
5696;SDS011;2873;50.966;7.210;2023-04-24T00:38:32;0.63;;;0.63;;
5696;SDS011;2873;50.966;7.210;2023-04-24T00:40:57;0.80;;;0.80;;
5696;SDS011;2873;50.966;7.210;2023-04-24T00:43:23;0.90;;;0.90;;
5696;SDS011;2873;50.966;7.210;2023-04-24T00:45:49;1.70;;;0.80;;
5696;SDS011;2873;50.966;7.210;2023-04-24T00:48:15;0.87;;;0.70;;
5696;SDS011;2873;50.966;7.210;2023-04-24T00:50:41;1.67;;;0.70;;
5696;SDS011;2873;50.966;7.210;2023-04-24T00:53:07;0.80;;;0.80;;
5696;SDS011;2873;50.966;7.210;2023-04-24T00:55:33;0.70;;;0.70;;
5696;SDS011;2873;50.966;7.210;2023-04-24T00:57:58;2.80;;;0.90;;
5696;SDS011;2873;50.966;7.210;2023-04-24T01:00:24;2.20;;;0.70;;
5696;SDS011;2873;50.966;7.210;2023-04-24T01:02:50;0.50;;;0.50;;
5696;SDS011;2873;50.966;7.210;2023-04-24T01:05:17;0.93;;;0.82;;
5696;SDS011;2873;50.966;7.210;2023-04-24T01:07:44;0.80;;;0.80;;
5696;SDS011;2873;50.966;7.210;2023-04-24T01:10:13;2.00;;;0.80;;
5696;SDS011;2873;50.966;7.210;2023-04-24T01:12:39;1.10;;;1.00;;
5696;SDS011;2873;50.966;7.210;2023-04-24T01:15:05;2.20;;;0.70;;
5696;SDS011;2873;50.966;7.210;2023-04-24T01:17:34;0.70;;;0.70;;
5696;SDS011;2873;50.966;7.210;2023-04-24T01:20:00;0.90;;;0.90;;
5696;SDS011;2873;50.966;7.210;2023-04-24T01:22:26;1.00;;;0.80;;
5696;SDS011;2873;50.966;7.210;2023-04-24T01:24:52;1.60;;;0.90;;
5696;SDS011;2873;50.966;7.210;2023-04-24T01:27:18;0.90;;;0.90;;
5696;SDS011;2873;50.966;7.210;2023-04-24T01:29:44;1.27;;;0.70;;
5696;SDS011;2873;50.966;7.210;2023-04-24T01:32:10;1.80;;;1.03;;
5696;SDS011;2873;50.966;7.210;2023-04-24T01:34:36;0.80;;;0.80;;
5696;SDS011;2873;50.966;7.210;2023-04-24T01:37:02;1.20;;;1.10;;
5696;SDS011;2873;50.966;7.210;2023-04-24T01:39:28;1.70;;;1.10;;
5696;SDS011;2873;50.966;7.210;2023-04-24T01:41:54;1.30;;;1.20;;
5696;SDS011;2873;50.966;7.210;2023-04-24T01:44:20;1.40;;;1.30;;
5696;SDS011;2873;50.966;7.210;2023-04-24T01:46:46;1.30;;;1.20;;
5696;SDS011;2873;50.966;7.210;2023-04-24T01:49:11;1.30;;;1.17;;
5696;SDS011;2873;50.966;7.210;2023-04-24T01:51:37;2.42;;;1.30;;
5696;SDS011;2873;50.966;7.210;2023-04-24T01:54:03;1.20;;;1.20;;
5696;SDS011;2873;50.966;7.210;2023-04-24T01:56:29;3.53;;;1.17;;
5696;SDS011;2873;50.966;7.210;2023-04-24T01:58:55;5.80;;;1.30;;
5696;SDS011;2873;50.966;7.210;2023-04-24T02:01:23;2.67;;;1.60;;
5696;SDS011;2873;50.966;7.210;2023-04-24T02:03:49;1.30;;;1.30;;
5696;SDS011;2873;50.966;7.210;2023-04-24T02:06:14;1.60;;;1.40;;
5696;SDS011;2873;50.966;7.210;2023-04-24T02:08:40;2.40;;;1.47;;
5696;SDS011;2873;50.966;7.210;2023-04-24T02:11:06;1.92;;;1.83;;
5696;SDS011;2873;50.966;7.210;2023-04-24T02:13:33;1.88;;;1.77;;
5696;SDS011;2873;50.966;7.210;2023-04-24T02:15:58;1.67;;;1.50;;
5696;SDS011;2873;50.966;7.210;2023-04-24T02:18:24;2.20;;;1.70;;
5696;SDS011;2873;50.966;7.210;2023-04-24T02:20:49;1.40;;;1.40;;
5696;SDS011;2873;50.966;7.210;2023-04-24T02:23:15;1.58;;;1.58;;
5696;SDS011;2873;50.966;7.210;2023-04-24T02:25:41;2.00;;;1.90;;
5696;SDS011;2873;50.966;7.210;2023-04-24T02:28:06;2.60;;;2.40;;
5696;SDS011;2873;50.966;7.210;2023-04-24T02:30:32;3.00;;;2.80;;
5696;SDS011;2873;50.966;7.210;2023-04-24T02:32:57;3.30;;;3.10;;
5696;SDS011;2873;50.966;7.210;2023-04-24T02:35:23;4.20;;;2.80;;
5696;SDS011;2873;50.966;7.210;2023-04-24T02:37:48;4.40;;;4.00;;
5696;SDS011;2873;50.966;7.210;2023-04-24T02:40:14;3.40;;;3.10;;
5696;SDS011;2873;50.966;7.210;2023-04-24T02:42:39;5.53;;;3.60;;
5696;SDS011;2873;50.966;7.210;2023-04-24T02:45:05;4.30;;;4.00;;
5696;SDS011;2873;50.966;7.210;2023-04-24T02:47:31;3.55;;;3.25;;
5696;SDS011;2873;50.966;7.210;2023-04-24T02:49:56;4.63;;;4.00;;
5696;SDS011;2873;50.966;7.210;2023-04-24T02:52:22;4.10;;;3.70;;
5696;SDS011;2873;50.966;7.210;2023-04-24T02:54:47;4.32;;;3.92;;
5696;SDS011;2873;50.966;7.210;2023-04-24T02:57:13;3.60;;;3.30;;
5696;SDS011;2873;50.966;7.210;2023-04-24T02:59:38;4.00;;;3.70;;
5696;SDS011;2873;50.966;7.210;2023-04-24T03:02:04;4.88;;;3.72;;
5696;SDS011;2873;50.966;7.210;2023-04-24T03:04:30;4.75;;;3.80;;
5696;SDS011;2873;50.966;7.210;2023-04-24T03:06:56;4.00;;;3.70;;
5696;SDS011;2873;50.966;7.210;2023-04-24T03:09:22;6.70;;;4.73;;
5696;SDS011;2873;50.966;7.210;2023-04-24T03:11:48;5.45;;;4.72;;
5696;SDS011;2873;50.966;7.210;2023-04-24T03:14:14;5.57;;;5.00;;
5696;SDS011;2873;50.966;7.210;2023-04-24T03:16:40;5.80;;;4.65;;
5696;SDS011;2873;50.966;7.210;2023-04-24T03:19:05;5.00;;;4.50;;
5696;SDS011;2873;50.966;7.210;2023-04-24T03:21:31;7.15;;;4.90;;
5696;SDS011;2873;50.966;7.210;2023-04-24T03:23:57;5.10;;;4.60;;
5696;SDS011;2873;50.966;7.210;2023-04-24T03:26:23;6.30;;;4.47;;
5696;SDS011;2873;50.966;7.210;2023-04-24T03:28:48;7.45;;;4.88;;
5696;SDS011;2873;50.966;7.210;2023-04-24T03:31:14;6.00;;;4.23;;
5696;SDS011;2873;50.966;7.210;2023-04-24T03:33:40;6.22;;;5.10;;
5696;SDS011;2873;50.966;7.210;2023-04-24T03:36:06;8.90;;;4.90;;
5696;SDS011;2873;50.966;7.210;2023-04-24T03:38:31;5.50;;;5.00;;
5696;SDS011;2873;50.966;7.210;2023-04-24T03:40:57;5.70;;;5.20;;
5696;SDS011;2873;50.966;7.210;2023-04-24T03:43:22;6.50;;;5.47;;
5696;SDS011;2873;50.966;7.210;2023-04-24T03:45:48;5.97;;;5.20;;
5696;SDS011;2873;50.966;7.210;2023-04-24T03:48:14;6.43;;;5.35;;
5696;SDS011;2873;50.966;7.210;2023-04-24T03:50:39;7.10;;;5.63;;
5696;SDS011;2873;50.966;7.210;2023-04-24T03:53:05;6.93;;;5.45;;
5696;SDS011;2873;50.966;7.210;2023-04-24T03:55:31;7.73;;;5.40;;
5696;SDS011;2873;50.966;7.210;2023-04-24T03:57:56;9.32;;;6.30;;
5696;SDS011;2873;50.966;7.210;2023-04-24T04:00:22;8.10;;;5.67;;
5696;SDS011;2873;50.966;7.210;2023-04-24T04:02:47;6.77;;;5.40;;
5696;SDS011;2873;50.966;7.210;2023-04-24T04:05:13;6.00;;;5.40;;
5696;SDS011;2873;50.966;7.210;2023-04-24T04:07:38;9.90;;;5.70;;
5696;SDS011;2873;50.966;7.210;2023-04-24T04:10:04;6.15;;;5.55;;
5696;SDS011;2873;50.966;7.210;2023-04-24T04:12:31;6.40;;;5.80;;
5696;SDS011;2873;50.966;7.210;2023-04-24T04:14:57;5.40;;;4.80;;
5696;SDS011;2873;50.966;7.210;2023-04-24T04:17:23;7.20;;;5.50;;
5696;SDS011;2873;50.966;7.210;2023-04-24T04:19:48;6.13;;;5.30;;
5696;SDS011;2873;50.966;7.210;2023-04-24T04:22:14;5.37;;;4.70;;
5696;SDS011;2873;50.966;7.210;2023-04-24T04:24:39;5.30;;;4.80;;
5696;SDS011;2873;50.966;7.210;2023-04-24T04:27:05;6.20;;;4.97;;
5696;SDS011;2873;50.966;7.210;2023-04-24T04:29:31;6.72;;;5.35;;
5696;SDS011;2873;50.966;7.210;2023-04-24T04:31:57;6.20;;;5.00;;
5696;SDS011;2873;50.966;7.210;2023-04-24T04:34:23;7.43;;;5.10;;
5696;SDS011;2873;50.966;7.210;2023-04-24T04:36:49;6.80;;;5.90;;
5696;SDS011;2873;50.966;7.210;2023-04-24T04:39:15;6.28;;;5.30;;
5696;SDS011;2873;50.966;7.210;2023-04-24T04:41:43;8.68;;;5.40;;
5696;SDS011;2873;50.966;7.210;2023-04-24T04:44:09;6.32;;;5.05;;
5696;SDS011;2873;50.966;7.210;2023-04-24T04:46:34;6.23;;;5.57;;
5696;SDS011;2873;50.966;7.210;2023-04-24T04:49:02;6.38;;;4.80;;
5696;SDS011;2873;50.966;7.210;2023-04-24T04:51:28;7.10;;;5.60;;
5696;SDS011;2873;50.966;7.210;2023-04-24T04:53:53;5.80;;;5.20;;
5696;SDS011;2873;50.966;7.210;2023-04-24T04:56:19;9.40;;;5.80;;
5696;SDS011;2873;50.966;7.210;2023-04-24T04:58:45;7.88;;;5.40;;
5696;SDS011;2873;50.966;7.210;2023-04-24T05:01:11;5.77;;;5.27;;
5696;SDS011;2873;50.966;7.210;2023-04-24T05:03:36;6.00;;;5.40;;
5696;SDS011;2873;50.966;7.210;2023-04-24T05:06:02;5.65;;;5.15;;
5696;SDS011;2873;50.966;7.210;2023-04-24T05:08:27;7.73;;;5.80;;
5696;SDS011;2873;50.966;7.210;2023-04-24T05:10:53;7.75;;;5.88;;
5696;SDS011;2873;50.966;7.210;2023-04-24T05:13:19;6.18;;;5.00;;
5696;SDS011;2873;50.966;7.210;2023-04-24T05:15:45;6.80;;;5.70;;
5696;SDS011;2873;50.966;7.210;2023-04-24T05:18:11;5.70;;;5.10;;
5696;SDS011;2873;50.966;7.210;2023-04-24T05:20:36;7.93;;;6.00;;
5696;SDS011;2873;50.966;7.210;2023-04-24T05:23:02;8.65;;;5.70;;
5696;SDS011;2873;50.966;7.210;2023-04-24T05:25:27;8.47;;;5.80;;
5696;SDS011;2873;50.966;7.210;2023-04-24T05:27:53;6.15;;;5.50;;
5696;SDS011;2873;50.966;7.210;2023-04-24T05:30:19;6.07;;;5.47;;
5696;SDS011;2873;50.966;7.210;2023-04-24T05:32:44;6.50;;;5.30;;
5696;SDS011;2873;50.966;7.210;2023-04-24T05:35:11;6.05;;;5.10;;
5696;SDS011;2873;50.966;7.210;2023-04-24T05:37:37;6.40;;;5.70;;
5696;SDS011;2873;50.966;7.210;2023-04-24T05:40:02;7.33;;;5.40;;
5696;SDS011;2873;50.966;7.210;2023-04-24T05:42:30;7.07;;;5.60;;
5696;SDS011;2873;50.966;7.210;2023-04-24T05:44:55;5.97;;;5.37;;
5696;SDS011;2873;50.966;7.210;2023-04-24T05:47:21;6.75;;;6.05;;
5696;SDS011;2873;50.966;7.210;2023-04-24T05:49:47;7.20;;;4.87;;
5696;SDS011;2873;50.966;7.210;2023-04-24T05:52:13;7.75;;;5.90;;
5696;SDS011;2873;50.966;7.210;2023-04-24T05:54:39;6.55;;;5.50;;
5696;SDS011;2873;50.966;7.210;2023-04-24T05:57:04;6.40;;;5.80;;
5696;SDS011;2873;50.966;7.210;2023-04-24T05:59:33;6.95;;;5.93;;
5696;SDS011;2873;50.966;7.210;2023-04-24T06:02:03;7.30;;;5.72;;
5696;SDS011;2873;50.966;7.210;2023-04-24T06:04:29;6.70;;;6.00;;
5696;SDS011;2873;50.966;7.210;2023-04-24T06:06:54;7.23;;;5.87;;
5696;SDS011;2873;50.966;7.210;2023-04-24T06:09:24;6.28;;;5.68;;
5696;SDS011;2873;50.966;7.210;2023-04-24T06:11:50;7.22;;;5.85;;
5696;SDS011;2873;50.966;7.210;2023-04-24T06:14:18;7.40;;;5.97;;
5696;SDS011;2873;50.966;7.210;2023-04-24T06:16:44;6.40;;;5.80;;
5696;SDS011;2873;50.966;7.210;2023-04-24T06:19:10;7.97;;;6.20;;
5696;SDS011;2873;50.966;7.210;2023-04-24T06:21:35;7.27;;;5.73;;
5696;SDS011;2873;50.966;7.210;2023-04-24T06:24:01;7.10;;;5.53;;
5696;SDS011;2873;50.966;7.210;2023-04-24T06:26:27;6.97;;;5.30;;
5696;SDS011;2873;50.966;7.210;2023-04-24T06:28:52;6.60;;;5.82;;
5696;SDS011;2873;50.966;7.210;2023-04-24T06:31:21;8.27;;;6.50;;
5696;SDS011;2873;50.966;7.210;2023-04-24T06:33:48;6.75;;;5.80;;
5696;SDS011;2873;50.966;7.210;2023-04-24T06:36:14;7.65;;;6.10;;
5696;SDS011;2873;50.966;7.210;2023-04-24T06:38:40;7.70;;;5.97;;
5696;SDS011;2873;50.966;7.210;2023-04-24T06:41:06;8.82;;;6.00;;
5696;SDS011;2873;50.966;7.210;2023-04-24T06:43:32;9.17;;;6.60;;
5696;SDS011;2873;50.966;7.210;2023-04-24T06:45:58;8.52;;;6.30;;
5696;SDS011;2873;50.966;7.210;2023-04-24T06:48:24;7.45;;;6.72;;
5696;SDS011;2873;50.966;7.210;2023-04-24T06:50:50;9.57;;;7.47;;
5696;SDS011;2873;50.966;7.210;2023-04-24T06:53:16;9.48;;;7.47;;
5696;SDS011;2873;50.966;7.210;2023-04-24T06:55:42;8.00;;;6.50;;
5696;SDS011;2873;50.966;7.210;2023-04-24T06:58:09;7.60;;;6.72;;
5696;SDS011;2873;50.966;7.210;2023-04-24T07:00:35;7.65;;;6.70;;
5696;SDS011;2873;50.966;7.210;2023-04-24T07:03:01;9.17;;;6.60;;
5696;SDS011;2873;50.966;7.210;2023-04-24T07:05:27;7.30;;;6.22;;
5696;SDS011;2873;50.966;7.210;2023-04-24T07:07:53;5.40;;;4.90;;
5696;SDS011;2873;50.966;7.210;2023-04-24T07:10:18;5.03;;;4.53;;
5696;SDS011;2873;50.966;7.210;2023-04-24T07:12:45;5.82;;;4.72;;
5696;SDS011;2873;50.966;7.210;2023-04-24T07:15:11;5.50;;;4.90;;
5696;SDS011;2873;50.966;7.210;2023-04-24T07:17:37;5.05;;;4.32;;
5696;SDS011;2873;50.966;7.210;2023-04-24T07:20:03;7.18;;;4.30;;
5696;SDS011;2873;50.966;7.210;2023-04-24T07:22:30;7.00;;;4.38;;
5696;SDS011;2873;50.966;7.210;2023-04-24T07:24:56;4.60;;;4.00;;
5696;SDS011;2873;50.966;7.210;2023-04-24T07:27:21;4.30;;;4.00;;
5696;SDS011;2873;50.966;7.210;2023-04-24T07:29:47;6.50;;;3.83;;
5696;SDS011;2873;50.966;7.210;2023-04-24T07:32:13;3.90;;;3.60;;
5696;SDS011;2873;50.966;7.210;2023-04-24T07:34:38;5.13;;;3.50;;
5696;SDS011;2873;50.966;7.210;2023-04-24T07:37:04;3.85;;;3.55;;
5696;SDS011;2873;50.966;7.210;2023-04-24T07:39:30;3.97;;;3.67;;
5696;SDS011;2873;50.966;7.210;2023-04-24T07:41:56;3.70;;;3.50;;
5696;SDS011;2873;50.966;7.210;2023-04-24T07:44:21;3.55;;;3.25;;
5696;SDS011;2873;50.966;7.210;2023-04-24T07:46:47;3.60;;;3.00;;
5696;SDS011;2873;50.966;7.210;2023-04-24T07:49:12;2.90;;;2.60;;
5696;SDS011;2873;50.966;7.210;2023-04-24T07:51:39;4.60;;;3.00;;
5696;SDS011;2873;50.966;7.210;2023-04-24T07:54:05;2.90;;;2.70;;
5696;SDS011;2873;50.966;7.210;2023-04-24T07:56:31;2.70;;;2.50;;
5696;SDS011;2873;50.966;7.210;2023-04-24T07:58:57;2.20;;;2.00;;
5696;SDS011;2873;50.966;7.210;2023-04-24T08:01:23;1.00;;;0.90;;
5696;SDS011;2873;50.966;7.210;2023-04-24T08:03:49;1.40;;;0.90;;
5696;SDS011;2873;50.966;7.210;2023-04-24T08:06:15;0.73;;;0.73;;
5696;SDS011;2873;50.966;7.210;2023-04-24T08:08:41;0.80;;;0.80;;
5696;SDS011;2873;50.966;7.210;2023-04-24T08:11:06;0.70;;;0.70;;
5696;SDS011;2873;50.966;7.210;2023-04-24T08:13:32;0.80;;;0.80;;
5696;SDS011;2873;50.966;7.210;2023-04-24T08:15:58;2.10;;;0.80;;
5696;SDS011;2873;50.966;7.210;2023-04-24T08:18:23;2.38;;;0.88;;
5696;SDS011;2873;50.966;7.210;2023-04-24T08:20:49;1.70;;;0.70;;
5696;SDS011;2873;50.966;7.210;2023-04-24T08:23:14;0.70;;;0.70;;
5696;SDS011;2873;50.966;7.210;2023-04-24T08:25:40;2.90;;;1.20;;
5696;SDS011;2873;50.966;7.210;2023-04-24T08:28:06;4.18;;;0.82;;
5696;SDS011;2873;50.966;7.210;2023-04-24T08:30:34;1.20;;;0.88;;
5696;SDS011;2873;50.966;7.210;2023-04-24T08:33:01;2.03;;;1.00;;
5696;SDS011;2873;50.966;7.210;2023-04-24T08:35:28;1.20;;;1.00;;
5696;SDS011;2873;50.966;7.210;2023-04-24T08:37:54;1.80;;;0.70;;
5696;SDS011;2873;50.966;7.210;2023-04-24T08:40:22;0.80;;;0.70;;
5696;SDS011;2873;50.966;7.210;2023-04-24T08:42:53;1.80;;;0.80;;
5696;SDS011;2873;50.966;7.210;2023-04-24T08:45:21;1.00;;;0.90;;
5696;SDS011;2873;50.966;7.210;2023-04-24T08:47:46;1.13;;;1.00;;
5696;SDS011;2873;50.966;7.210;2023-04-24T08:50:14;1.20;;;1.10;;
5696;SDS011;2873;50.966;7.210;2023-04-24T08:52:40;1.00;;;1.00;;
5696;SDS011;2873;50.966;7.210;2023-04-24T08:55:07;0.80;;;0.80;;
5696;SDS011;2873;50.966;7.210;2023-04-24T08:57:34;1.70;;;1.20;;
5696;SDS011;2873;50.966;7.210;2023-04-24T09:00:01;2.25;;;1.00;;
5696;SDS011;2873;50.966;7.210;2023-04-24T09:02:28;1.30;;;1.20;;
5696;SDS011;2873;50.966;7.210;2023-04-24T09:04:54;1.20;;;0.90;;
5696;SDS011;2873;50.966;7.210;2023-04-24T09:07:22;4.50;;;1.30;;
5696;SDS011;2873;50.966;7.210;2023-04-24T09:09:50;1.53;;;1.43;;
5696;SDS011;2873;50.966;7.210;2023-04-24T09:12:17;2.30;;;1.70;;
5696;SDS011;2873;50.966;7.210;2023-04-24T09:14:43;1.70;;;1.50;;
5696;SDS011;2873;50.966;7.210;2023-04-24T09:17:10;3.50;;;1.80;;
5696;SDS011;2873;50.966;7.210;2023-04-24T09:19:36;1.92;;;1.83;;
5696;SDS011;2873;50.966;7.210;2023-04-24T09:22:05;2.47;;;2.10;;
5696;SDS011;2873;50.966;7.210;2023-04-24T09:24:31;3.40;;;1.77;;
5696;SDS011;2873;50.966;7.210;2023-04-24T09:26:58;2.40;;;2.30;;
5696;SDS011;2873;50.966;7.210;2023-04-24T09:29:26;2.30;;;2.20;;
5696;SDS011;2873;50.966;7.210;2023-04-24T09:31:52;3.10;;;2.90;;
5696;SDS011;2873;50.966;7.210;2023-04-24T09:34:24;3.13;;;2.85;;
5696;SDS011;2873;50.966;7.210;2023-04-24T09:36:51;3.53;;;3.22;;
5696;SDS011;2873;50.966;7.210;2023-04-24T09:39:17;3.70;;;3.50;;
5696;SDS011;2873;50.966;7.210;2023-04-24T09:41:49;5.50;;;4.10;;
5696;SDS011;2873;50.966;7.210;2023-04-24T09:44:26;4.60;;;3.30;;
5696;SDS011;2873;50.966;7.210;2023-04-24T09:46:56;6.95;;;4.20;;
5696;SDS011;2873;50.966;7.210;2023-04-24T09:51:50;9.38;;;4.68;;
5696;SDS011;2873;50.966;7.210;2023-04-24T09:54:20;5.57;;;4.50;;
5696;SDS011;2873;50.966;7.210;2023-04-24T09:56:48;7.03;;;4.40;;
5696;SDS011;2873;50.966;7.210;2023-04-24T09:59:15;5.78;;;4.78;;
5696;SDS011;2873;50.966;7.210;2023-04-24T10:01:42;5.57;;;4.50;;
5696;SDS011;2873;50.966;7.210;2023-04-24T10:04:26;6.50;;;4.50;;
5696;SDS011;2873;50.966;7.210;2023-04-24T10:06:53;6.00;;;4.47;;
5696;SDS011;2873;50.966;7.210;2023-04-24T10:09:22;5.30;;;4.60;;
5696;SDS011;2873;50.966;7.210;2023-04-24T10:11:49;6.38;;;4.60;;
5696;SDS011;2873;50.966;7.210;2023-04-24T10:14:17;8.80;;;5.93;;
5696;SDS011;2873;50.966;7.210;2023-04-24T10:16:45;8.48;;;6.10;;
5696;SDS011;2873;50.966;7.210;2023-04-24T10:19:15;9.40;;;5.90;;
5696;SDS011;2873;50.966;7.210;2023-04-24T10:21:44;9.82;;;6.88;;
5696;SDS011;2873;50.966;7.210;2023-04-24T10:24:13;9.82;;;6.70;;
5696;SDS011;2873;50.966;7.210;2023-04-24T10:26:40;8.43;;;6.60;;
5696;SDS011;2873;50.966;7.210;2023-04-24T10:29:06;10.60;;;6.70;;
5696;SDS011;2873;50.966;7.210;2023-04-24T10:31:37;10.65;;;7.20;;
5696;SDS011;2873;50.966;7.210;2023-04-24T10:34:04;11.20;;;6.90;;
5696;SDS011;2873;50.966;7.210;2023-04-24T10:36:32;10.43;;;6.55;;
5696;SDS011;2873;50.966;7.210;2023-04-24T10:39:00;11.20;;;6.68;;
5696;SDS011;2873;50.966;7.210;2023-04-24T10:41:27;8.38;;;6.15;;
5696;SDS011;2873;50.966;7.210;2023-04-24T10:46:33;8.55;;;6.22;;
5696;SDS011;2873;50.966;7.210;2023-04-24T10:48:59;8.70;;;6.60;;
5696;SDS011;2873;50.966;7.210;2023-04-24T10:51:44;8.88;;;5.90;;
5696;SDS011;2873;50.966;7.210;2023-04-24T10:59:48;11.27;;;6.07;;
5696;SDS011;2873;50.966;7.210;2023-04-24T11:02:19;8.93;;;5.95;;
5696;SDS011;2873;50.966;7.210;2023-04-24T11:05:05;12.27;;;6.27;;
5696;SDS011;2873;50.966;7.210;2023-04-24T11:13:10;12.63;;;5.18;;
5696;SDS011;2873;50.966;7.210;2023-04-24T11:15:41;10.52;;;5.45;;
5696;SDS011;2873;50.966;7.210;2023-04-24T11:18:11;6.57;;;5.88;;
5696;SDS011;2873;50.966;7.210;2023-04-24T11:20:41;11.32;;;5.00;;
5696;SDS011;2873;50.966;7.210;2023-04-24T11:23:11;6.38;;;4.45;;
5696;SDS011;2873;50.966;7.210;2023-04-24T11:25:38;8.27;;;4.22;;
5696;SDS011;2873;50.966;7.210;2023-04-24T11:28:04;6.15;;;3.70;;
5696;SDS011;2873;50.966;7.210;2023-04-24T11:30:31;10.10;;;3.80;;
5696;SDS011;2873;50.966;7.210;2023-04-24T11:33:04;8.52;;;4.00;;
5696;SDS011;2873;50.966;7.210;2023-04-24T11:35:34;4.97;;;3.60;;
5696;SDS011;2873;50.966;7.210;2023-04-24T11:38:03;7.32;;;4.10;;
5696;SDS011;2873;50.966;7.210;2023-04-24T11:40:30;9.90;;;4.10;;
5696;SDS011;2873;50.966;7.210;2023-04-24T11:42:56;6.90;;;4.18;;
5696;SDS011;2873;50.966;7.210;2023-04-24T11:45:26;6.22;;;3.83;;
5696;SDS011;2873;50.966;7.210;2023-04-24T11:47:53;8.73;;;4.10;;
5696;SDS011;2873;50.966;7.210;2023-04-24T11:50:20;10.50;;;4.40;;
5696;SDS011;2873;50.966;7.210;2023-04-24T11:52:48;12.23;;;4.30;;
5696;SDS011;2873;50.966;7.210;2023-04-24T11:57:51;9.77;;;4.80;;
5696;SDS011;2873;50.966;7.210;2023-04-24T12:00:22;9.15;;;4.20;;
5696;SDS011;2873;50.966;7.210;2023-04-24T12:02:50;8.20;;;3.90;;
5696;SDS011;2873;50.966;7.210;2023-04-24T12:05:23;9.18;;;4.70;;
5696;SDS011;2873;50.966;7.210;2023-04-24T12:07:50;9.10;;;4.72;;
5696;SDS011;2873;50.966;7.210;2023-04-24T12:10:20;8.23;;;4.20;;
5696;SDS011;2873;50.966;7.210;2023-04-24T12:12:50;9.65;;;4.60;;
5696;SDS011;2873;50.966;7.210;2023-04-24T12:15:16;5.73;;;4.33;;
5696;SDS011;2873;50.966;7.210;2023-04-24T12:17:44;10.45;;;4.10;;
5696;SDS011;2873;50.966;7.210;2023-04-24T12:20:10;11.45;;;4.90;;
5696;SDS011;2873;50.966;7.210;2023-04-24T12:22:52;14.60;;;5.60;;
5696;SDS011;2873;50.966;7.210;2023-04-24T12:25:20;11.18;;;6.47;;
5696;SDS011;2873;50.966;7.210;2023-04-24T12:27:52;8.48;;;6.28;;
5696;SDS011;2873;50.966;7.210;2023-04-24T12:30:20;11.45;;;5.85;;
5696;SDS011;2873;50.966;7.210;2023-04-24T12:32:46;13.60;;;6.53;;
5696;SDS011;2873;50.966;7.210;2023-04-24T12:35:13;10.20;;;5.28;;
5696;SDS011;2873;50.966;7.210;2023-04-24T12:37:44;10.63;;;6.00;;
5696;SDS011;2873;50.966;7.210;2023-04-24T12:40:10;12.98;;;6.43;;
5696;SDS011;2873;50.966;7.210;2023-04-24T12:45:15;13.57;;;6.88;;
5696;SDS011;2873;50.966;7.210;2023-04-24T12:47:43;15.65;;;7.20;;
5696;SDS011;2873;50.966;7.210;2023-04-24T12:50:10;11.65;;;6.70;;
5696;SDS011;2873;50.966;7.210;2023-04-24T12:52:36;15.85;;;7.47;;
5696;SDS011;2873;50.966;7.210;2023-04-24T12:55:02;14.10;;;8.10;;
5696;SDS011;2873;50.966;7.210;2023-04-24T12:57:29;13.85;;;7.40;;
5696;SDS011;2873;50.966;7.210;2023-04-24T12:59:56;10.23;;;6.68;;
5696;SDS011;2873;50.966;7.210;2023-04-24T13:02:23;12.53;;;5.80;;
5696;SDS011;2873;50.966;7.210;2023-04-24T13:04:50;8.95;;;5.10;;
5696;SDS011;2873;50.966;7.210;2023-04-24T13:07:16;12.55;;;5.97;;
5696;SDS011;2873;50.966;7.210;2023-04-24T13:09:42;9.77;;;4.85;;
5696;SDS011;2873;50.966;7.210;2023-04-24T13:12:09;10.53;;;5.90;;
5696;SDS011;2873;50.966;7.210;2023-04-24T13:14:36;12.65;;;5.40;;
5696;SDS011;2873;50.966;7.210;2023-04-24T13:17:02;9.57;;;5.78;;
5696;SDS011;2873;50.966;7.210;2023-04-24T13:19:28;13.48;;;5.10;;
5696;SDS011;2873;50.966;7.210;2023-04-24T13:21:55;11.95;;;5.28;;
5696;SDS011;2873;50.966;7.210;2023-04-24T13:24:22;9.73;;;5.40;;
5696;SDS011;2873;50.966;7.210;2023-04-24T13:26:51;9.43;;;4.73;;
5696;SDS011;2873;50.966;7.210;2023-04-24T13:29:17;8.75;;;5.30;;
5696;SDS011;2873;50.966;7.210;2023-04-24T13:31:42;9.68;;;4.88;;
5696;SDS011;2873;50.966;7.210;2023-04-24T13:34:08;15.23;;;5.20;;
5696;SDS011;2873;50.966;7.210;2023-04-24T13:36:34;15.10;;;6.97;;
5696;SDS011;2873;50.966;7.210;2023-04-24T13:39:00;8.80;;;5.78;;
5696;SDS011;2873;50.966;7.210;2023-04-24T13:41:28;10.48;;;5.97;;
5696;SDS011;2873;50.966;7.210;2023-04-24T13:43:53;12.70;;;6.03;;
5696;SDS011;2873;50.966;7.210;2023-04-24T13:46:19;9.80;;;6.13;;
5696;SDS011;2873;50.966;7.210;2023-04-24T13:48:45;11.45;;;5.60;;
5696;SDS011;2873;50.966;7.210;2023-04-24T13:51:10;8.70;;;5.57;;
5696;SDS011;2873;50.966;7.210;2023-04-24T13:53:36;10.02;;;5.47;;
5696;SDS011;2873;50.966;7.210;2023-04-24T13:56:03;11.48;;;5.40;;
5696;SDS011;2873;50.966;7.210;2023-04-24T13:58:30;16.30;;;5.20;;
5696;SDS011;2873;50.966;7.210;2023-04-24T14:00:57;12.45;;;5.43;;
5696;SDS011;2873;50.966;7.210;2023-04-24T14:03:23;11.00;;;5.10;;
5696;SDS011;2873;50.966;7.210;2023-04-24T14:05:48;9.48;;;5.07;;
5696;SDS011;2873;50.966;7.210;2023-04-24T14:08:14;7.70;;;4.43;;
5696;SDS011;2873;50.966;7.210;2023-04-24T14:10:40;7.72;;;4.72;;
5696;SDS011;2873;50.966;7.210;2023-04-24T14:13:06;9.80;;;4.90;;
5696;SDS011;2873;50.966;7.210;2023-04-24T14:15:31;10.70;;;5.20;;
5696;SDS011;2873;50.966;7.210;2023-04-24T14:17:57;9.38;;;4.55;;
5696;SDS011;2873;50.966;7.210;2023-04-24T14:20:23;6.67;;;4.77;;
5696;SDS011;2873;50.966;7.210;2023-04-24T14:22:48;9.13;;;4.75;;
5696;SDS011;2873;50.966;7.210;2023-04-24T14:25:14;9.30;;;4.90;;
5696;SDS011;2873;50.966;7.210;2023-04-24T14:27:40;7.75;;;4.68;;
5696;SDS011;2873;50.966;7.210;2023-04-24T14:30:06;8.13;;;4.23;;
5696;SDS011;2873;50.966;7.210;2023-04-24T14:32:32;6.38;;;4.40;;
5696;SDS011;2873;50.966;7.210;2023-04-24T14:34:58;8.50;;;4.20;;
5696;SDS011;2873;50.966;7.210;2023-04-24T14:37:23;6.75;;;4.00;;
5696;SDS011;2873;50.966;7.210;2023-04-24T14:39:49;7.27;;;4.73;;
5696;SDS011;2873;50.966;7.210;2023-04-24T14:42:14;11.63;;;4.90;;
5696;SDS011;2873;50.966;7.210;2023-04-24T14:44:41;8.73;;;4.70;;
5696;SDS011;2873;50.966;7.210;2023-04-24T14:47:07;7.60;;;5.23;;
5696;SDS011;2873;50.966;7.210;2023-04-24T14:49:33;8.15;;;5.10;;
5696;SDS011;2873;50.966;7.210;2023-04-24T14:51:59;6.60;;;4.63;;
5696;SDS011;2873;50.966;7.210;2023-04-24T14:54:25;6.75;;;4.40;;
5696;SDS011;2873;50.966;7.210;2023-04-24T14:56:50;9.23;;;4.10;;
5696;SDS011;2873;50.966;7.210;2023-04-24T14:59:16;8.07;;;4.78;;
5696;SDS011;2873;50.966;7.210;2023-04-24T15:01:41;7.00;;;4.37;;
5696;SDS011;2873;50.966;7.210;2023-04-24T15:04:07;6.97;;;4.90;;
5696;SDS011;2873;50.966;7.210;2023-04-24T15:06:32;11.10;;;5.20;;
5696;SDS011;2873;50.966;7.210;2023-04-24T15:08:58;5.80;;;5.10;;
5696;SDS011;2873;50.966;7.210;2023-04-24T15:11:24;7.35;;;4.80;;
5696;SDS011;2873;50.966;7.210;2023-04-24T15:13:50;7.70;;;4.60;;
5696;SDS011;2873;50.966;7.210;2023-04-24T15:16:16;5.93;;;4.20;;
5696;SDS011;2873;50.966;7.210;2023-04-24T15:18:41;5.55;;;4.20;;
5696;SDS011;2873;50.966;7.210;2023-04-24T15:21:07;5.60;;;4.30;;
5696;SDS011;2873;50.966;7.210;2023-04-24T15:23:33;5.63;;;4.27;;
5696;SDS011;2873;50.966;7.210;2023-04-24T15:25:59;8.43;;;4.40;;
5696;SDS011;2873;50.966;7.210;2023-04-24T15:28:26;6.45;;;4.00;;
5696;SDS011;2873;50.966;7.210;2023-04-24T15:30:51;4.70;;;3.90;;